createdAt,value
2017-08-22T00:01:09.968Z,82.70
2017-08-22T00:03:39.841Z,82.50
2017-08-22T00:06:06.343Z,82.40
2017-08-22T00:08:32.363Z,82.30
2017-08-22T00:10:58.401Z,82.10
2017-08-22T00:13:25.332Z,82.00
2017-08-22T00:15:51.276Z,81.80
2017-08-22T00:18:17.268Z,81.00
2017-08-22T00:20:43.234Z,81.10
2017-08-22T00:23:09.819Z,81.20
2017-08-22T00:25:35.829Z,81.60
2017-08-22T00:28:01.808Z,82.00
2017-08-22T00:30:27.790Z,82.20
2017-08-22T00:32:53.857Z,82.00
2017-08-22T00:35:19.915Z,82.50
2017-08-22T00:37:45.991Z,82.90
2017-08-22T00:40:11.983Z,82.80
2017-08-22T00:42:38.016Z,82.10
2017-08-22T00:45:04.014Z,82.30
2017-08-22T00:47:30.105Z,82.90
2017-08-22T00:49:56.160Z,83.40
2017-08-22T00:52:22.122Z,83.50
2017-08-22T00:54:48.109Z,83.80
2017-08-22T00:57:14.135Z,84.40
2017-08-22T00:59:40.760Z,85.20
2017-08-22T01:02:06.720Z,85.40
2017-08-22T01:04:32.673Z,85.80
2017-08-22T01:06:58.673Z,86.00
2017-08-22T01:09:25.321Z,85.90
2017-08-22T01:11:51.300Z,86.00
2017-08-22T01:14:17.331Z,85.80
2017-08-22T01:16:43.306Z,85.50
2017-08-22T01:19:09.289Z,85.40
2017-08-22T01:21:35.308Z,85.60
2017-08-22T01:24:01.315Z,86.20
2017-08-22T01:26:27.292Z,86.60
2017-08-22T01:28:53.308Z,86.80
2017-08-22T01:31:19.415Z,87.00
2017-08-22T01:33:45.359Z,87.20
2017-08-22T01:36:11.380Z,87.30
2017-08-22T01:38:37.581Z,87.40
2017-08-22T01:41:03.611Z,87.30
2017-08-22T01:43:29.597Z,87.30
2017-08-22T01:45:58.243Z,87.40
2017-08-22T01:48:24.198Z,87.80
2017-08-22T01:50:50.194Z,88.20
2017-08-22T01:53:16.840Z,88.20
2017-08-22T01:55:42.808Z,88.40
2017-08-22T01:58:09.808Z,88.40
2017-08-22T02:00:35.808Z,88.10
2017-08-22T02:03:02.407Z,88.00
2017-08-22T02:05:28.464Z,87.90
2017-08-22T02:07:54.590Z,87.80
2017-08-22T02:10:20.776Z,87.70
2017-08-22T02:12:46.816Z,87.40
2017-08-22T02:15:13.706Z,87.60
2017-08-22T02:17:39.729Z,87.90
2017-08-22T02:20:05.771Z,87.70
2017-08-22T02:22:32.630Z,88.00
2017-08-22T02:24:58.634Z,88.20
2017-08-22T02:27:24.658Z,88.50
2017-08-22T02:29:50.635Z,88.50
2017-08-22T02:32:16.643Z,88.60
2017-08-22T02:34:42.617Z,88.50
2017-08-22T02:37:08.564Z,89.10
2017-08-22T02:39:34.493Z,89.60
2017-08-22T02:42:00.506Z,90.00
2017-08-22T02:44:26.498Z,90.10
2017-08-22T02:46:52.512Z,90.10
2017-08-22T02:49:18.759Z,90.00
2017-08-22T02:51:44.812Z,89.90
2017-08-22T02:54:11.588Z,90.10
2017-08-22T02:56:37.593Z,90.20
2017-08-22T02:59:03.565Z,90.30
2017-08-22T03:01:29.537Z,90.10
2017-08-22T03:03:55.567Z,89.90
2017-08-22T03:06:21.594Z,89.20
2017-08-22T03:08:47.594Z,90.00
2017-08-22T03:11:13.555Z,90.30
2017-08-22T03:13:40.412Z,90.50
2017-08-22T03:16:07.219Z,90.50
2017-08-22T03:18:33.170Z,90.60
2017-08-22T03:20:59.187Z,90.60
2017-08-22T03:23:25.175Z,90.60
2017-08-22T03:25:51.211Z,90.50
2017-08-22T03:28:17.564Z,90.50
2017-08-22T03:30:43.606Z,90.60
2017-08-22T03:33:09.619Z,90.60
2017-08-22T03:35:36.249Z,90.70
2017-08-22T03:38:02.243Z,90.70
2017-08-22T03:40:28.301Z,90.70
2017-08-22T03:42:54.314Z,90.70
2017-08-22T03:45:20.419Z,90.50
2017-08-22T03:47:46.478Z,90.60
2017-08-22T03:50:13.072Z,90.50
2017-08-22T03:52:39.133Z,90.90
2017-08-22T03:55:06.044Z,90.70
2017-08-22T03:57:32.085Z,90.70
2017-08-22T03:59:58.641Z,90.50
2017-08-22T04:02:24.700Z,90.30
2017-08-22T04:04:50.700Z,90.20
2017-08-22T04:07:16.946Z,90.30
2017-08-22T04:09:42.903Z,90.40
2017-08-22T04:12:08.922Z,90.70
2017-08-22T04:14:35.259Z,90.80
2017-08-22T04:17:01.281Z,91.00
2017-08-22T04:19:27.775Z,91.20
2017-08-22T04:21:53.785Z,91.30
2017-08-22T04:24:19.803Z,91.50
2017-08-22T04:26:45.804Z,91.60
2017-08-22T04:29:11.850Z,91.80
2017-08-22T04:31:38.672Z,91.80
2017-08-22T04:34:04.605Z,91.90
2017-08-22T04:36:30.630Z,91.90
2017-08-22T04:38:56.615Z,91.90
2017-08-22T04:41:23.297Z,91.80
2017-08-22T04:43:49.296Z,91.70
2017-08-22T04:46:15.260Z,91.50
2017-08-22T04:48:41.260Z,91.00
2017-08-22T04:51:07.220Z,91.00
2017-08-22T04:53:33.230Z,91.10
2017-08-22T04:55:59.247Z,91.10
2017-08-22T04:58:26.280Z,90.80
2017-08-22T05:00:52.993Z,91.20
2017-08-22T05:03:19.023Z,90.90
2017-08-22T05:05:45.074Z,90.80
2017-08-22T05:08:11.593Z,90.70
2017-08-22T05:10:37.617Z,90.80
2017-08-22T05:13:03.657Z,90.70
2017-08-22T05:15:29.975Z,90.70
2017-08-22T05:17:55.925Z,90.80
2017-08-22T05:20:22.901Z,90.90
2017-08-22T05:22:48.888Z,90.60
2017-08-22T05:25:14.880Z,90.50
2017-08-22T05:27:40.961Z,90.50
2017-08-22T05:30:07.855Z,90.60
2017-08-22T05:32:33.819Z,90.80
2017-08-22T05:34:59.784Z,90.80
2017-08-22T05:37:25.727Z,90.60
2017-08-22T05:39:51.783Z,90.60
2017-08-22T05:42:18.556Z,90.10
2017-08-22T05:47:16.028Z,90.00
2017-08-22T05:49:42.663Z,89.50
2017-08-22T05:52:08.623Z,89.20
2017-08-22T05:54:34.628Z,89.30
2017-08-22T05:57:00.669Z,89.70
2017-08-22T05:59:26.699Z,89.30
2017-08-22T06:01:54.337Z,88.80
2017-08-22T06:04:20.318Z,88.80
2017-08-22T06:06:46.380Z,89.00
2017-08-22T06:09:12.355Z,89.40
2017-08-22T06:11:39.337Z,88.70
2017-08-22T06:14:05.336Z,88.70
2017-08-22T06:16:32.172Z,88.80
2017-08-22T06:18:58.813Z,88.00
2017-08-22T06:21:25.596Z,87.80
2017-08-22T06:23:52.153Z,88.00
2017-08-22T06:26:20.027Z,88.00
2017-08-22T06:28:45.986Z,87.60
2017-08-22T06:31:14.528Z,87.60
2017-08-22T06:33:40.933Z,87.90
2017-08-22T06:36:07.779Z,87.60
2017-08-22T06:38:34.542Z,87.60
2017-08-22T06:41:01.343Z,87.50
2017-08-22T06:43:30.158Z,86.70
2017-08-22T06:45:56.909Z,86.30
2017-08-22T06:48:26.707Z,85.70
2017-08-22T06:50:58.404Z,84.30
2017-08-22T06:53:25.316Z,83.90
2017-08-22T06:55:51.336Z,83.10
2017-08-22T06:58:17.501Z,83.00
2017-08-22T07:00:43.485Z,83.30
2017-08-22T07:03:09.491Z,83.00
2017-08-22T07:05:35.547Z,82.70
2017-08-22T07:08:02.787Z,82.70
2017-08-22T07:10:29.127Z,82.20
2017-08-22T07:12:56.376Z,82.70
2017-08-22T07:15:25.541Z,83.30
2017-08-22T07:17:51.692Z,83.20
2017-08-22T07:20:18.407Z,83.60
2017-08-22T07:22:44.421Z,84.30
2017-08-22T07:25:10.388Z,84.50
2017-08-22T07:27:36.610Z,84.00
2017-08-22T07:30:03.343Z,84.10
2017-08-22T07:32:30.092Z,83.60
2017-08-22T07:34:56.117Z,82.80
2017-08-22T07:37:22.144Z,82.20
2017-08-22T07:39:48.164Z,82.30
2017-08-22T07:42:15.867Z,82.50
2017-08-22T07:44:42.687Z,81.50
2017-08-22T07:47:08.655Z,82.10
2017-08-22T07:49:34.648Z,81.50
2017-08-22T07:52:00.732Z,81.40
2017-08-22T07:54:26.724Z,82.10
2017-08-22T07:56:52.691Z,81.00
2017-08-22T07:59:18.783Z,80.40
2017-08-22T08:01:44.840Z,80.50
2017-08-22T08:04:10.863Z,80.20
2017-08-22T08:06:39.879Z,79.20
2017-08-22T08:09:06.471Z,79.60
2017-08-22T08:11:32.523Z,79.80
2017-08-22T08:13:59.443Z,79.60
2017-08-22T08:16:25.461Z,78.90
2017-08-22T08:18:51.779Z,78.30
2017-08-22T08:21:17.815Z,77.90
2017-08-22T08:23:43.747Z,77.90
2017-08-22T08:26:10.002Z,77.00
2017-08-22T08:28:35.997Z,76.40
2017-08-22T08:31:02.004Z,74.60
2017-08-22T08:33:28.620Z,74.20
2017-08-22T08:35:54.628Z,73.60
2017-08-22T08:38:20.647Z,73.10
2017-08-22T08:40:46.915Z,72.80
2017-08-22T08:43:12.855Z,72.80
2017-08-22T08:45:39.602Z,71.90
2017-08-22T08:48:05.645Z,70.60
2017-08-22T08:50:31.712Z,70.80
2017-08-22T08:52:58.170Z,69.90
2017-08-22T08:55:24.147Z,67.90
2017-08-22T08:57:50.985Z,67.50
2017-08-22T09:00:17.022Z,67.70
2017-08-22T09:02:43.101Z,66.30
2017-08-22T09:05:09.102Z,65.70
2017-08-22T09:07:35.144Z,65.40
2017-08-22T09:10:01.324Z,64.90
2017-08-22T09:12:27.323Z,64.50
2017-08-22T09:14:53.397Z,64.00
2017-08-22T09:22:20.914Z,64.00
2017-08-22T09:24:46.936Z,63.60
2017-08-22T09:27:12.927Z,62.40
2017-08-22T09:29:38.887Z,61.90
2017-08-22T09:32:04.886Z,61.50
2017-08-22T09:34:30.875Z,61.20
2017-08-22T09:36:58.200Z,60.70
2017-08-22T09:39:24.178Z,61.30
2017-08-22T09:41:50.130Z,61.10
2017-08-22T09:44:16.146Z,61.70
2017-08-22T09:46:42.142Z,61.70
2017-08-22T09:49:09.082Z,60.70
2017-08-22T09:51:35.134Z,59.70
2017-08-22T09:54:01.316Z,58.60
2017-08-22T09:56:27.865Z,58.80
2017-08-22T09:58:53.824Z,59.80
2017-08-22T10:01:19.817Z,61.10
2017-08-22T10:03:49.165Z,60.20
2017-08-22T10:06:15.159Z,59.90
2017-08-22T10:08:41.165Z,59.10
2017-08-22T10:11:07.588Z,59.10
2017-08-22T10:13:33.593Z,58.30
2017-08-22T10:15:59.572Z,56.60
2017-08-22T10:18:25.762Z,56.40
2017-08-22T10:20:51.722Z,56.00
2017-08-22T10:23:18.109Z,56.10
2017-08-22T10:25:44.116Z,55.60
2017-08-22T10:28:10.124Z,55.40
2017-08-22T10:30:36.668Z,55.20
2017-08-22T10:33:02.666Z,54.40
2017-08-22T10:35:28.629Z,53.70
2017-08-22T10:37:54.595Z,53.90
2017-08-22T10:40:20.615Z,53.50
2017-08-22T10:42:46.620Z,53.60
2017-08-22T10:45:12.658Z,54.10
2017-08-22T10:47:38.612Z,53.90
2017-08-22T10:50:04.775Z,53.80
2017-08-22T10:52:30.759Z,53.80
2017-08-22T10:54:57.419Z,53.90
2017-08-22T10:57:24.379Z,53.10
2017-08-22T10:59:51.222Z,52.30
2017-08-22T11:02:17.408Z,50.90
2017-08-22T11:04:43.497Z,50.90
2017-08-22T11:07:09.552Z,50.30
2017-08-22T11:09:35.627Z,49.20
2017-08-22T11:12:02.024Z,48.80
2017-08-22T11:14:28.806Z,47.90
2017-08-22T11:16:55.676Z,48.00
2017-08-22T11:19:21.740Z,46.50
2017-08-22T11:21:48.518Z,45.20
2017-08-22T11:24:14.479Z,45.80
2017-08-22T11:26:40.415Z,44.10
2017-08-22T11:29:06.415Z,44.60
2017-08-22T11:31:32.373Z,44.70
2017-08-22T11:33:59.451Z,44.40
2017-08-22T11:36:25.440Z,44.40
2017-08-22T11:38:51.491Z,44.10
2017-08-22T11:41:18.450Z,44.10
2017-08-22T11:43:45.150Z,44.30
2017-08-22T11:46:12.900Z,44.20
2017-08-22T11:48:38.877Z,43.60
2017-08-22T11:51:06.128Z,43.50
2017-08-22T11:53:32.496Z,43.50
2017-08-22T11:55:59.191Z,43.30
2017-08-22T11:58:26.509Z,43.00
2017-08-22T12:00:52.524Z,42.20
2017-08-22T12:03:18.594Z,41.90
2017-08-22T12:05:44.578Z,41.60
2017-08-22T12:08:11.476Z,41.90
2017-08-22T12:10:38.361Z,41.60
2017-08-22T12:13:06.019Z,42.50
2017-08-22T12:15:32.620Z,41.40
2017-08-22T12:17:58.566Z,42.00
2017-08-22T12:20:24.573Z,41.50
2017-08-22T12:22:50.806Z,41.60
2017-08-22T12:25:17.196Z,41.00
2017-08-22T12:27:43.290Z,40.70
2017-08-22T12:30:09.272Z,40.10
2017-08-22T12:32:35.290Z,39.70
2017-08-22T12:35:01.499Z,39.50
2017-08-22T12:37:29.979Z,41.70
2017-08-22T12:39:56.232Z,43.10
2017-08-22T12:42:22.256Z,43.20
2017-08-22T12:44:48.976Z,42.70
2017-08-22T12:47:15.075Z,42.30
2017-08-22T12:49:43.194Z,41.90
2017-08-22T12:52:09.257Z,42.70
2017-08-22T12:54:38.302Z,42.10
2017-08-22T12:57:06.228Z,42.70
2017-08-22T12:59:32.203Z,43.70
2017-08-22T13:01:58.291Z,44.60
2017-08-22T13:04:24.227Z,44.90
2017-08-22T13:06:50.249Z,45.40
2017-08-22T13:09:16.273Z,45.50
2017-08-22T13:11:42.267Z,45.10
2017-08-22T13:14:09.132Z,44.50
2017-08-22T13:16:37.124Z,44.10
2017-08-22T13:19:03.198Z,42.60
2017-08-22T13:21:29.265Z,42.80
2017-08-22T13:23:55.959Z,42.80
2017-08-22T13:26:21.971Z,42.10
2017-08-22T13:28:47.934Z,41.60
2017-08-22T13:31:14.317Z,41.20
2017-08-22T13:33:40.305Z,41.60
2017-08-22T13:36:06.242Z,41.40
2017-08-22T13:38:32.207Z,40.40
2017-08-22T13:40:58.815Z,40.60
2017-08-22T13:43:24.972Z,40.80
2017-08-22T13:45:51.857Z,39.70
2017-08-22T13:48:17.912Z,39.70
2017-08-22T13:50:43.919Z,40.50
2017-08-22T13:53:10.050Z,40.10
2017-08-22T13:55:36.197Z,40.00
2017-08-22T13:58:03.424Z,41.30
2017-08-22T14:00:29.449Z,40.60
2017-08-22T14:02:55.466Z,40.70
2017-08-22T14:05:22.314Z,41.80
2017-08-22T14:07:48.348Z,42.10
2017-08-22T14:10:14.574Z,42.20
2017-08-22T14:12:42.636Z,41.10
2017-08-22T14:15:09.472Z,41.20
2017-08-22T14:17:35.657Z,41.50
2017-08-22T14:20:01.649Z,41.50
2017-08-22T14:22:27.602Z,40.90
2017-08-22T14:24:53.625Z,40.90
2017-08-22T14:27:20.190Z,40.00
2017-08-22T14:29:46.247Z,39.10
2017-08-22T14:32:13.281Z,39.40
2017-08-22T14:34:41.705Z,39.40
2017-08-22T14:37:08.112Z,39.90
2017-08-22T14:39:34.324Z,40.10
2017-08-22T14:42:00.327Z,39.70
2017-08-22T14:44:27.106Z,40.60
2017-08-22T14:46:54.068Z,40.70
2017-08-22T14:49:20.074Z,41.00
2017-08-22T14:51:46.110Z,41.10
2017-08-22T14:54:13.094Z,41.30
2017-08-22T14:56:40.113Z,41.10
2017-08-22T14:59:08.090Z,41.60
2017-08-22T15:01:34.226Z,41.70
2017-08-22T15:04:02.478Z,42.30
2017-08-22T15:06:28.454Z,42.10
2017-08-22T15:08:55.518Z,41.30
2017-08-22T15:11:21.745Z,40.90
2017-08-22T15:13:47.763Z,40.80
2017-08-22T15:16:15.421Z,38.80
2017-08-22T15:18:43.430Z,39.10
2017-08-22T15:21:09.434Z,39.50
2017-08-22T15:23:35.481Z,40.00
2017-08-22T15:26:01.441Z,40.20
2017-08-22T15:28:27.476Z,40.30
2017-08-22T15:30:53.399Z,40.00
2017-08-22T15:33:19.403Z,39.30
2017-08-22T15:35:46.282Z,38.50
2017-08-22T15:38:12.298Z,38.70
2017-08-22T15:40:38.303Z,38.30
2017-08-22T15:43:04.666Z,37.80
2017-08-22T15:45:30.768Z,37.30
2017-08-22T15:47:57.001Z,37.40
2017-08-22T15:50:24.690Z,37.20
2017-08-22T15:52:50.688Z,36.60
2017-08-22T15:55:16.598Z,37.30
2017-08-22T15:57:43.173Z,37.70
2017-08-22T16:00:09.200Z,37.40
2017-08-22T16:02:35.451Z,37.20
2017-08-22T16:05:01.475Z,37.20
2017-08-22T16:07:27.462Z,37.00
2017-08-22T16:09:53.547Z,37.00
2017-08-22T16:12:19.603Z,37.10
2017-08-22T16:14:45.612Z,37.10
2017-08-22T16:17:12.197Z,37.00
2017-08-22T16:19:38.160Z,37.50
2017-08-22T16:22:04.131Z,37.80
2017-08-22T16:24:33.223Z,37.60
2017-08-22T16:26:59.860Z,37.80
2017-08-22T16:29:25.843Z,37.70
2017-08-22T16:31:54.630Z,38.10
2017-08-22T16:34:21.579Z,38.30
2017-08-22T16:36:47.593Z,38.30
2017-08-22T16:39:13.670Z,38.40
2017-08-22T16:41:39.684Z,38.40
2017-08-22T16:44:06.563Z,38.40
2017-08-22T16:46:32.611Z,38.80
2017-08-22T16:48:58.739Z,38.20
2017-08-22T16:51:24.895Z,38.60
2017-08-22T16:53:50.990Z,38.90
2017-08-22T16:56:17.083Z,39.20
2017-08-22T16:58:43.145Z,38.80
2017-08-22T17:01:09.114Z,38.60
2017-08-22T17:03:35.245Z,39.00
2017-08-22T17:06:01.500Z,39.70
2017-08-22T17:08:27.470Z,39.80
2017-08-22T17:10:53.473Z,40.20
2017-08-22T17:13:20.455Z,40.40
2017-08-22T17:15:46.437Z,41.20
2017-08-22T17:18:12.435Z,40.80
2017-08-22T17:20:38.352Z,41.60
2017-08-22T17:23:04.303Z,41.50
2017-08-22T17:25:30.357Z,41.60
2017-08-22T17:27:56.278Z,41.80
2017-08-22T17:30:22.227Z,42.20
2017-08-22T17:32:48.190Z,42.30
2017-08-22T17:35:14.408Z,42.50
2017-08-22T17:37:40.943Z,42.90
2017-08-22T17:40:08.791Z,42.90
2017-08-22T17:42:34.834Z,43.40
2017-08-22T17:45:00.857Z,43.60
2017-08-22T17:47:26.808Z,43.60
2017-08-22T17:49:52.783Z,43.80
2017-08-22T17:52:18.939Z,44.00
2017-08-22T17:54:45.876Z,44.40
2017-08-22T17:57:11.908Z,44.40
2017-08-22T17:59:38.740Z,44.40
2017-08-22T18:02:04.736Z,44.40
2017-08-22T18:04:30.684Z,44.60
2017-08-22T18:06:56.628Z,44.80
2017-08-22T18:09:22.655Z,45.00
2017-08-22T18:11:48.643Z,45.10
2017-08-22T18:14:14.719Z,45.60
2017-08-22T18:16:40.728Z,45.60
2017-08-22T18:19:06.720Z,46.00
2017-08-22T18:21:33.113Z,46.20
2017-08-22T18:23:59.190Z,46.30
2017-08-22T18:26:25.194Z,46.70
2017-08-22T18:28:51.145Z,47.00
2017-08-22T18:31:17.125Z,47.40
2017-08-22T18:33:43.080Z,47.80
2017-08-22T18:36:09.860Z,48.00
2017-08-22T18:38:35.878Z,48.20
2017-08-22T18:41:01.961Z,48.70
2017-08-22T18:43:27.927Z,49.10
2017-08-22T18:45:53.977Z,49.60
2017-08-22T18:48:20.004Z,49.90
2017-08-22T18:50:46.174Z,50.00
2017-08-22T18:53:13.042Z,50.10
2017-08-22T18:55:39.052Z,50.60
2017-08-22T18:58:05.303Z,51.10
2017-08-22T19:00:31.333Z,51.90
2017-08-22T19:02:57.328Z,52.30
2017-08-22T19:05:23.475Z,52.60
2017-08-22T19:07:49.444Z,52.60
2017-08-22T19:10:15.408Z,53.00
2017-08-22T19:12:41.446Z,52.90
2017-08-22T19:15:07.460Z,53.50
2017-08-22T19:17:33.583Z,53.10
2017-08-22T19:19:59.952Z,53.10
2017-08-22T19:22:25.932Z,53.30
2017-08-22T19:24:52.024Z,53.40
2017-08-22T19:27:17.969Z,53.50
2017-08-22T19:29:45.115Z,54.00
2017-08-22T19:32:11.180Z,54.40
2017-08-22T19:34:39.829Z,54.80
2017-08-22T19:37:06.033Z,54.70
2017-08-22T19:39:32.911Z,54.70
2017-08-22T19:41:59.163Z,54.80
2017-08-22T19:44:25.137Z,54.90
2017-08-22T19:46:53.093Z,54.90
2017-08-22T19:49:19.580Z,55.00
2017-08-22T19:51:45.558Z,55.30
2017-08-22T19:54:11.972Z,55.70
2017-08-22T19:56:38.369Z,55.90
2017-08-22T19:59:04.556Z,56.30
2017-08-22T20:01:31.639Z,56.70
2017-08-22T20:03:57.647Z,56.80
2017-08-22T20:06:23.691Z,56.90
2017-08-22T20:08:50.423Z,57.10
2017-08-22T20:11:16.494Z,57.30
2017-08-22T20:13:44.809Z,57.40
2017-08-22T20:16:10.817Z,57.60
2017-08-22T20:18:38.432Z,57.90
2017-08-22T20:21:05.196Z,58.30
2017-08-22T20:23:31.995Z,58.30
2017-08-22T20:25:59.397Z,58.60
2017-08-22T20:28:25.400Z,58.50
2017-08-22T20:30:51.460Z,58.60
2017-08-22T20:33:17.591Z,58.90
2017-08-22T20:35:43.645Z,59.50
2017-08-22T20:38:09.642Z,59.40
2017-08-22T20:40:36.340Z,59.10
2017-08-22T20:43:02.893Z,58.80
2017-08-22T20:45:28.844Z,59.20
2017-08-22T20:47:55.841Z,59.30
2017-08-22T20:50:22.095Z,59.10
2017-08-22T20:52:48.154Z,59.40
2017-08-22T20:55:14.092Z,60.00
2017-08-22T20:57:41.311Z,60.60
2017-08-22T21:00:08.803Z,60.40
2017-08-22T21:02:35.544Z,60.80
2017-08-22T21:05:01.513Z,61.50
2017-08-22T21:07:27.534Z,61.70
2017-08-22T21:09:53.517Z,62.00
2017-08-22T21:12:19.510Z,62.20
2017-08-22T21:14:45.530Z,62.50
2017-08-22T21:17:11.552Z,63.00
2017-08-22T21:19:37.522Z,63.20
2017-08-22T21:22:03.548Z,63.30
2017-08-22T21:24:30.511Z,63.60
2017-08-22T21:26:56.468Z,63.60
2017-08-22T21:29:22.494Z,63.90
2017-08-22T21:31:48.515Z,63.40
2017-08-22T21:34:14.492Z,64.00
2017-08-22T21:36:40.530Z,64.00
2017-08-22T21:39:06.579Z,64.00
2017-08-22T21:41:32.603Z,64.00
2017-08-22T21:43:59.953Z,64.50
2017-08-22T21:46:25.900Z,65.10
2017-08-22T21:48:52.277Z,65.30
2017-08-22T21:51:18.443Z,65.30
2017-08-22T21:53:44.636Z,65.50
2017-08-22T21:56:10.684Z,65.60
2017-08-22T21:58:36.650Z,65.30
2017-08-22T22:01:02.732Z,65.50
2017-08-22T22:03:28.835Z,66.00
2017-08-22T22:05:54.831Z,66.50
2017-08-22T22:08:21.699Z,66.70
2017-08-22T22:10:47.660Z,66.40
2017-08-22T22:13:13.674Z,66.90
2017-08-22T22:15:40.404Z,67.20
2017-08-22T22:18:06.349Z,68.10
2017-08-22T22:20:32.301Z,67.80
2017-08-22T22:22:58.293Z,68.20
2017-08-22T22:25:24.771Z,68.20
2017-08-22T22:27:50.883Z,68.40
2017-08-22T22:30:17.405Z,68.60
2017-08-22T22:32:43.532Z,68.90
2017-08-22T22:35:10.209Z,68.70
2017-08-22T22:37:36.184Z,68.50
2017-08-22T22:40:02.144Z,68.20
2017-08-22T22:42:28.116Z,68.60
2017-08-22T22:44:54.076Z,68.80
2017-08-22T22:47:20.086Z,69.00
2017-08-22T22:49:46.094Z,69.00
2017-08-22T22:52:12.075Z,69.00
2017-08-22T22:54:38.046Z,69.20
2017-08-22T22:57:04.092Z,69.50
2017-08-22T22:59:30.081Z,70.00
2017-08-22T23:01:56.134Z,69.80
2017-08-22T23:04:22.742Z,69.60
2017-08-22T23:06:48.679Z,69.50
2017-08-22T23:09:14.793Z,69.90
2017-08-22T23:11:40.806Z,70.10
2017-08-22T23:14:06.734Z,70.10
2017-08-22T23:16:32.719Z,69.90
2017-08-22T23:18:59.620Z,70.10
2017-08-22T23:21:25.656Z,70.50
2017-08-22T23:23:51.699Z,71.10
2017-08-22T23:26:17.683Z,71.50
2017-08-22T23:28:43.697Z,71.40
2017-08-22T23:31:09.708Z,71.70
2017-08-22T23:33:36.673Z,71.60
2017-08-22T23:36:05.348Z,72.90
2017-08-22T23:38:31.329Z,72.70
2017-08-22T23:40:57.309Z,72.80
2017-08-22T23:43:23.322Z,73.00
2017-08-22T23:45:49.253Z,73.20
2017-08-22T23:48:15.239Z,73.70
2017-08-22T23:50:41.842Z,73.80
2017-08-22T23:53:07.787Z,74.10
2017-08-22T23:55:33.746Z,74.80
2017-08-22T23:57:59.680Z,74.20
